Coelho da Rocha, Brazil
Current Conditions -  °F | °C
As of 10:00 PM on Wednesday 22 Oct 2014 (Local Time) from SBAF Reporting Station
Broken Clouds Broken Clouds  
Wind Chill: 72°   Ceiling: 5000
Heat Index: 72°   Visibility: 6mi
Dew Point: 59°   Wind: 6mph
Humidity: 64%   Direction: 100°E
Pressure: 30.21"   Gusts: NA
Location:  22.78°S, 43.38°W
Report Text: SBAF 230000Z 10005KT 9999 FEW030 BKN050 22/15 Q1023
Loading
Personal Weather Stations






























Interactive Weather Map
Tropical Storm Tracking
New forecast layout! Learn more

10-Day Weather Forecast

Advertisements
Track Severe Weather on mobile